sensor_id;sensor_type;location;lat;lon;timestamp;P1;durP1;ratioP1;P2;durP2;ratioP2
11313;SDS011;5712;48.858;9.206;2023-04-03T00:00:59;3.67;;;2.77;;
11313;SDS011;5712;48.858;9.206;2023-04-03T00:03:25;4.37;;;2.60;;
11313;SDS011;5712;48.858;9.206;2023-04-03T00:05:52;5.83;;;2.70;;
11313;SDS011;5712;48.858;9.206;2023-04-03T00:08:20;4.80;;;2.50;;
11313;SDS011;5712;48.858;9.206;2023-04-03T00:10:47;5.40;;;3.17;;
11313;SDS011;5712;48.858;9.206;2023-04-03T00:13:13;3.13;;;2.27;;
11313;SDS011;5712;48.858;9.206;2023-04-03T00:15:40;2.83;;;2.50;;
11313;SDS011;5712;48.858;9.206;2023-04-03T00:18:07;3.20;;;2.53;;
11313;SDS011;5712;48.858;9.206;2023-04-03T00:20:34;3.50;;;2.67;;
11313;SDS011;5712;48.858;9.206;2023-04-03T00:23:01;4.37;;;2.73;;
11313;SDS011;5712;48.858;9.206;2023-04-03T00:25:29;3.67;;;2.73;;
11313;SDS011;5712;48.858;9.206;2023-04-03T00:27:56;3.17;;;2.80;;
11313;SDS011;5712;48.858;9.206;2023-04-03T00:30:22;4.77;;;3.00;;
11313;SDS011;5712;48.858;9.206;2023-04-03T00:32:50;4.23;;;2.97;;
11313;SDS011;5712;48.858;9.206;2023-04-03T00:35:17;4.33;;;2.80;;
11313;SDS011;5712;48.858;9.206;2023-04-03T00:37:45;3.60;;;2.40;;
11313;SDS011;5712;48.858;9.206;2023-04-03T00:40:12;5.10;;;2.70;;
11313;SDS011;5712;48.858;9.206;2023-04-03T00:42:41;3.73;;;2.33;;
11313;SDS011;5712;48.858;9.206;2023-04-03T00:45:33;3.70;;;2.83;;
11313;SDS011;5712;48.858;9.206;2023-04-03T00:48:01;4.33;;;2.73;;
11313;SDS011;5712;48.858;9.206;2023-04-03T00:50:31;2.93;;;2.53;;
11313;SDS011;5712;48.858;9.206;2023-04-03T00:53:00;3.80;;;2.40;;
11313;SDS011;5712;48.858;9.206;2023-04-03T00:55:27;2.67;;;2.47;;
11313;SDS011;5712;48.858;9.206;2023-04-03T00:57:56;3.20;;;2.57;;
11313;SDS011;5712;48.858;9.206;2023-04-03T01:00:23;3.17;;;2.40;;
11313;SDS011;5712;48.858;9.206;2023-04-03T01:02:51;3.27;;;2.47;;
11313;SDS011;5712;48.858;9.206;2023-04-03T01:05:18;2.83;;;2.57;;
11313;SDS011;5712;48.858;9.206;2023-04-03T01:07:46;3.33;;;2.70;;
11313;SDS011;5712;48.858;9.206;2023-04-03T01:10:16;3.50;;;2.60;;
11313;SDS011;5712;48.858;9.206;2023-04-03T01:12:45;5.67;;;2.87;;
11313;SDS011;5712;48.858;9.206;2023-04-03T01:15:15;3.20;;;2.80;;
11313;SDS011;5712;48.858;9.206;2023-04-03T01:17:44;5.50;;;2.83;;
11313;SDS011;5712;48.858;9.206;2023-04-03T01:23:37;4.93;;;3.10;;
11313;SDS011;5712;48.858;9.206;2023-04-03T01:26:18;3.13;;;2.70;;
11313;SDS011;5712;48.858;9.206;2023-04-03T01:28:46;3.73;;;3.10;;
11313;SDS011;5712;48.858;9.206;2023-04-03T01:31:16;4.20;;;2.80;;
11313;SDS011;5712;48.858;9.206;2023-04-03T01:33:49;3.83;;;3.13;;
11313;SDS011;5712;48.858;9.206;2023-04-03T01:36:18;3.93;;;2.73;;
11313;SDS011;5712;48.858;9.206;2023-04-03T01:38:46;3.23;;;2.60;;
11313;SDS011;5712;48.858;9.206;2023-04-03T01:41:12;3.20;;;2.73;;
11313;SDS011;5712;48.858;9.206;2023-04-03T01:43:39;3.67;;;2.73;;
11313;SDS011;5712;48.858;9.206;2023-04-03T01:46:05;3.20;;;2.90;;
11313;SDS011;5712;48.858;9.206;2023-04-03T01:48:32;3.40;;;2.77;;
11313;SDS011;5712;48.858;9.206;2023-04-03T01:51:01;4.37;;;3.07;;
11313;SDS011;5712;48.858;9.206;2023-04-03T01:53:27;3.40;;;2.77;;
11313;SDS011;5712;48.858;9.206;2023-04-03T01:55:54;3.60;;;2.90;;
11313;SDS011;5712;48.858;9.206;2023-04-03T01:58:20;4.53;;;3.10;;
11313;SDS011;5712;48.858;9.206;2023-04-03T02:00:47;3.00;;;2.70;;
11313;SDS011;5712;48.858;9.206;2023-04-03T02:03:13;4.33;;;2.97;;
11313;SDS011;5712;48.858;9.206;2023-04-03T02:05:40;3.60;;;2.80;;
11313;SDS011;5712;48.858;9.206;2023-04-03T02:08:08;4.40;;;2.97;;
11313;SDS011;5712;48.858;9.206;2023-04-03T02:10:35;3.73;;;3.10;;
11313;SDS011;5712;48.858;9.206;2023-04-03T02:13:02;3.60;;;2.87;;
11313;SDS011;5712;48.858;9.206;2023-04-03T02:15:29;3.70;;;3.00;;
11313;SDS011;5712;48.858;9.206;2023-04-03T02:17:55;3.97;;;3.00;;
11313;SDS011;5712;48.858;9.206;2023-04-03T02:20:22;3.20;;;2.87;;
11313;SDS011;5712;48.858;9.206;2023-04-03T02:22:48;2.80;;;2.50;;
11313;SDS011;5712;48.858;9.206;2023-04-03T02:25:16;3.00;;;2.73;;
11313;SDS011;5712;48.858;9.206;2023-04-03T02:27:43;3.60;;;2.70;;
11313;SDS011;5712;48.858;9.206;2023-04-03T02:30:10;3.30;;;3.00;;
11313;SDS011;5712;48.858;9.206;2023-04-03T02:32:37;4.70;;;2.63;;
11313;SDS011;5712;48.858;9.206;2023-04-03T02:35:05;3.20;;;2.77;;
11313;SDS011;5712;48.858;9.206;2023-04-03T02:37:32;3.27;;;2.80;;
11313;SDS011;5712;48.858;9.206;2023-04-03T02:39:58;2.60;;;2.30;;
11313;SDS011;5712;48.858;9.206;2023-04-03T02:42:26;4.27;;;2.60;;
11313;SDS011;5712;48.858;9.206;2023-04-03T02:44:52;3.00;;;2.47;;
11313;SDS011;5712;48.858;9.206;2023-04-03T02:47:20;3.47;;;2.60;;
11313;SDS011;5712;48.858;9.206;2023-04-03T02:49:46;6.53;;;3.60;;
11313;SDS011;5712;48.858;9.206;2023-04-03T02:52:13;2.50;;;2.27;;
11313;SDS011;5712;48.858;9.206;2023-04-03T02:54:40;2.90;;;2.50;;
11313;SDS011;5712;48.858;9.206;2023-04-03T02:57:06;3.23;;;2.50;;
11313;SDS011;5712;48.858;9.206;2023-04-03T02:59:35;3.13;;;2.60;;
11313;SDS011;5712;48.858;9.206;2023-04-03T03:02:01;3.77;;;2.50;;
11313;SDS011;5712;48.858;9.206;2023-04-03T03:04:28;3.87;;;2.67;;
11313;SDS011;5712;48.858;9.206;2023-04-03T03:06:54;2.70;;;2.33;;
11313;SDS011;5712;48.858;9.206;2023-04-03T03:09:21;2.63;;;2.17;;
11313;SDS011;5712;48.858;9.206;2023-04-03T03:11:47;3.07;;;2.70;;
11313;SDS011;5712;48.858;9.206;2023-04-03T03:14:14;3.30;;;2.63;;
11313;SDS011;5712;48.858;9.206;2023-04-03T03:16:42;3.67;;;2.70;;
11313;SDS011;5712;48.858;9.206;2023-04-03T03:19:08;2.77;;;2.40;;
11313;SDS011;5712;48.858;9.206;2023-04-03T03:21:35;4.47;;;2.50;;
11313;SDS011;5712;48.858;9.206;2023-04-03T03:24:01;3.00;;;2.70;;
11313;SDS011;5712;48.858;9.206;2023-04-03T03:26:28;3.07;;;2.50;;
11313;SDS011;5712;48.858;9.206;2023-04-03T03:28:55;3.67;;;2.43;;
11313;SDS011;5712;48.858;9.206;2023-04-03T03:31:21;2.97;;;2.40;;
11313;SDS011;5712;48.858;9.206;2023-04-03T03:33:49;2.73;;;2.47;;
11313;SDS011;5712;48.858;9.206;2023-04-03T03:36:16;3.27;;;2.50;;
11313;SDS011;5712;48.858;9.206;2023-04-03T03:38:42;2.77;;;2.47;;
11313;SDS011;5712;48.858;9.206;2023-04-03T03:41:09;3.70;;;2.70;;
11313;SDS011;5712;48.858;9.206;2023-04-03T03:43:35;3.93;;;2.50;;
11313;SDS011;5712;48.858;9.206;2023-04-03T03:46:02;4.27;;;2.53;;
11313;SDS011;5712;48.858;9.206;2023-04-03T03:48:28;3.20;;;2.67;;
11313;SDS011;5712;48.858;9.206;2023-04-03T03:50:56;3.07;;;2.20;;
11313;SDS011;5712;48.858;9.206;2023-04-03T03:53:23;3.70;;;2.53;;
11313;SDS011;5712;48.858;9.206;2023-04-03T03:55:49;3.80;;;2.90;;
11313;SDS011;5712;48.858;9.206;2023-04-03T03:58:16;4.33;;;2.90;;
11313;SDS011;5712;48.858;9.206;2023-04-03T04:00:42;3.00;;;2.70;;
11313;SDS011;5712;48.858;9.206;2023-04-03T04:03:09;3.07;;;2.77;;
11313;SDS011;5712;48.858;9.206;2023-04-03T04:05:35;3.67;;;2.60;;
11313;SDS011;5712;48.858;9.206;2023-04-03T04:08:03;3.17;;;2.63;;
11313;SDS011;5712;48.858;9.206;2023-04-03T04:10:30;3.00;;;2.67;;
11313;SDS011;5712;48.858;9.206;2023-04-03T04:12:56;3.57;;;2.90;;
11313;SDS011;5712;48.858;9.206;2023-04-03T04:15:22;3.33;;;2.93;;
11313;SDS011;5712;48.858;9.206;2023-04-03T04:17:50;3.30;;;3.00;;
11313;SDS011;5712;48.858;9.206;2023-04-03T04:20:17;3.63;;;2.77;;
11313;SDS011;5712;48.858;9.206;2023-04-03T04:22:43;3.00;;;2.70;;
11313;SDS011;5712;48.858;9.206;2023-04-03T04:25:11;3.57;;;3.10;;
11313;SDS011;5712;48.858;9.206;2023-04-03T04:27:38;2.87;;;2.67;;
11313;SDS011;5712;48.858;9.206;2023-04-03T04:30:05;2.80;;;2.60;;
11313;SDS011;5712;48.858;9.206;2023-04-03T04:32:32;3.00;;;2.70;;
11313;SDS011;5712;48.858;9.206;2023-04-03T04:34:59;4.10;;;2.90;;
11313;SDS011;5712;48.858;9.206;2023-04-03T04:37:26;2.93;;;2.63;;
11313;SDS011;5712;48.858;9.206;2023-04-03T04:39:52;3.00;;;2.70;;
11313;SDS011;5712;48.858;9.206;2023-04-03T04:42:20;2.93;;;2.63;;
11313;SDS011;5712;48.858;9.206;2023-04-03T04:44:47;2.90;;;2.63;;
11313;SDS011;5712;48.858;9.206;2023-04-03T04:47:13;3.00;;;2.70;;
11313;SDS011;5712;48.858;9.206;2023-04-03T04:49:40;2.97;;;2.60;;
11313;SDS011;5712;48.858;9.206;2023-04-03T04:52:06;3.03;;;2.70;;
11313;SDS011;5712;48.858;9.206;2023-04-03T04:54:32;3.23;;;2.60;;
11313;SDS011;5712;48.858;9.206;2023-04-03T04:56:59;3.83;;;2.67;;
11313;SDS011;5712;48.858;9.206;2023-04-03T04:59:27;7.37;;;3.17;;
11313;SDS011;5712;48.858;9.206;2023-04-03T05:01:53;3.63;;;3.07;;
11313;SDS011;5712;48.858;9.206;2023-04-03T05:04:20;2.93;;;2.40;;
11313;SDS011;5712;48.858;9.206;2023-04-03T05:06:46;3.47;;;2.87;;
11313;SDS011;5712;48.858;9.206;2023-04-03T05:09:13;2.73;;;2.50;;
11313;SDS011;5712;48.858;9.206;2023-04-03T05:11:40;2.50;;;2.30;;
11313;SDS011;5712;48.858;9.206;2023-04-03T05:14:06;3.33;;;2.70;;
11313;SDS011;5712;48.858;9.206;2023-04-03T05:16:34;3.83;;;2.67;;
11313;SDS011;5712;48.858;9.206;2023-04-03T05:19:01;4.03;;;2.57;;
11313;SDS011;5712;48.858;9.206;2023-04-03T05:21:27;3.23;;;2.33;;
11313;SDS011;5712;48.858;9.206;2023-04-03T05:23:57;4.97;;;2.40;;
11313;SDS011;5712;48.858;9.206;2023-04-03T05:26:23;3.47;;;2.40;;
11313;SDS011;5712;48.858;9.206;2023-04-03T05:28:50;3.03;;;2.03;;
11313;SDS011;5712;48.858;9.206;2023-04-03T05:31:17;2.67;;;2.10;;
11313;SDS011;5712;48.858;9.206;2023-04-03T05:33:44;3.27;;;2.30;;
11313;SDS011;5712;48.858;9.206;2023-04-03T05:36:12;3.03;;;2.30;;
11313;SDS011;5712;48.858;9.206;2023-04-03T05:38:38;3.70;;;2.33;;
11313;SDS011;5712;48.858;9.206;2023-04-03T05:41:05;3.07;;;2.77;;
11313;SDS011;5712;48.858;9.206;2023-04-03T05:43:32;4.87;;;2.97;;
11313;SDS011;5712;48.858;9.206;2023-04-03T05:45:59;2.83;;;2.50;;
11313;SDS011;5712;48.858;9.206;2023-04-03T05:48:26;2.53;;;2.33;;
11313;SDS011;5712;48.858;9.206;2023-04-03T05:50:53;3.20;;;2.37;;
11313;SDS011;5712;48.858;9.206;2023-04-03T05:53:21;3.20;;;2.50;;
11313;SDS011;5712;48.858;9.206;2023-04-03T05:55:49;2.57;;;2.23;;
11313;SDS011;5712;48.858;9.206;2023-04-03T05:58:16;2.50;;;2.30;;
11313;SDS011;5712;48.858;9.206;2023-04-03T06:00:42;3.07;;;2.03;;
11313;SDS011;5712;48.858;9.206;2023-04-03T06:03:09;3.20;;;2.47;;
11313;SDS011;5712;48.858;9.206;2023-04-03T06:05:36;4.80;;;2.57;;
11313;SDS011;5712;48.858;9.206;2023-04-03T06:08:03;2.40;;;2.13;;
11313;SDS011;5712;48.858;9.206;2023-04-03T06:10:30;3.47;;;2.30;;
11313;SDS011;5712;48.858;9.206;2023-04-03T06:12:57;6.00;;;2.43;;
11313;SDS011;5712;48.858;9.206;2023-04-03T06:15:23;2.53;;;2.30;;
11313;SDS011;5712;48.858;9.206;2023-04-03T06:17:50;4.03;;;2.30;;
11313;SDS011;5712;48.858;9.206;2023-04-03T06:20:16;2.80;;;2.43;;
11313;SDS011;5712;48.858;9.206;2023-04-03T06:22:43;2.20;;;2.00;;
11313;SDS011;5712;48.858;9.206;2023-04-03T06:25:11;4.33;;;2.70;;
11313;SDS011;5712;48.858;9.206;2023-04-03T06:27:37;3.47;;;2.80;;
11313;SDS011;5712;48.858;9.206;2023-04-03T06:30:04;6.17;;;2.33;;
11313;SDS011;5712;48.858;9.206;2023-04-03T06:32:32;4.30;;;2.60;;
11313;SDS011;5712;48.858;9.206;2023-04-03T06:34:58;4.93;;;2.80;;
11313;SDS011;5712;48.858;9.206;2023-04-03T06:37:25;4.37;;;2.80;;
11313;SDS011;5712;48.858;9.206;2023-04-03T06:39:53;2.53;;;2.30;;
11313;SDS011;5712;48.858;9.206;2023-04-03T06:42:21;4.77;;;2.70;;
11313;SDS011;5712;48.858;9.206;2023-04-03T06:44:48;4.53;;;2.70;;
11313;SDS011;5712;48.858;9.206;2023-04-03T06:47:15;3.10;;;2.60;;
11313;SDS011;5712;48.858;9.206;2023-04-03T06:49:42;3.30;;;2.63;;
11313;SDS011;5712;48.858;9.206;2023-04-03T06:52:09;3.70;;;2.93;;
11313;SDS011;5712;48.858;9.206;2023-04-03T06:54:38;4.30;;;2.73;;
11313;SDS011;5712;48.858;9.206;2023-04-03T06:57:05;4.37;;;3.27;;
11313;SDS011;5712;48.858;9.206;2023-04-03T06:59:33;3.30;;;2.70;;
11313;SDS011;5712;48.858;9.206;2023-04-03T07:02:00;4.10;;;2.77;;
11313;SDS011;5712;48.858;9.206;2023-04-03T07:04:26;3.43;;;2.33;;
11313;SDS011;5712;48.858;9.206;2023-04-03T07:06:53;6.30;;;2.87;;
11313;SDS011;5712;48.858;9.206;2023-04-03T07:09:19;4.47;;;3.27;;
11313;SDS011;5712;48.858;9.206;2023-04-03T07:11:46;3.78;;;3.13;;
11313;SDS011;5712;48.858;9.206;2023-04-03T07:14:12;3.93;;;2.90;;
11313;SDS011;5712;48.858;9.206;2023-04-03T07:16:40;3.53;;;3.20;;
11313;SDS011;5712;48.858;9.206;2023-04-03T07:19:07;5.10;;;3.20;;
11313;SDS011;5712;48.858;9.206;2023-04-03T07:21:34;5.47;;;3.50;;
11313;SDS011;5712;48.858;9.206;2023-04-03T07:24:01;4.30;;;2.90;;
11313;SDS011;5712;48.858;9.206;2023-04-03T07:26:27;2.97;;;2.70;;
11313;SDS011;5712;48.858;9.206;2023-04-03T07:28:54;4.97;;;3.10;;
11313;SDS011;5712;48.858;9.206;2023-04-03T07:31:20;4.03;;;2.50;;
11313;SDS011;5712;48.858;9.206;2023-04-03T07:33:49;5.65;;;3.30;;
11313;SDS011;5712;48.858;9.206;2023-04-03T07:36:17;7.43;;;3.23;;
11313;SDS011;5712;48.858;9.206;2023-04-03T07:38:45;2.63;;;2.43;;
11313;SDS011;5712;48.858;9.206;2023-04-03T07:41:12;4.40;;;2.93;;
11313;SDS011;5712;48.858;9.206;2023-04-03T07:43:42;4.13;;;3.30;;
11313;SDS011;5712;48.858;9.206;2023-04-03T07:46:09;4.73;;;3.20;;
11313;SDS011;5712;48.858;9.206;2023-04-03T07:49:50;3.20;;;2.60;;
11313;SDS011;5712;48.858;9.206;2023-04-03T07:52:17;4.07;;;3.00;;
11313;SDS011;5712;48.858;9.206;2023-04-03T07:54:43;4.03;;;2.63;;
11313;SDS011;5712;48.858;9.206;2023-04-03T07:57:10;6.87;;;3.17;;
11313;SDS011;5712;48.858;9.206;2023-04-03T07:59:36;3.43;;;3.07;;
11313;SDS011;5712;48.858;9.206;2023-04-03T08:02:04;3.70;;;2.90;;
11313;SDS011;5712;48.858;9.206;2023-04-03T08:04:31;4.50;;;2.97;;
11313;SDS011;5712;48.858;9.206;2023-04-03T08:06:59;3.40;;;3.00;;
11313;SDS011;5712;48.858;9.206;2023-04-03T08:09:29;6.13;;;3.53;;
11313;SDS011;5712;48.858;9.206;2023-04-03T08:11:56;4.87;;;2.80;;
11313;SDS011;5712;48.858;9.206;2023-04-03T08:14:23;2.93;;;2.63;;
11313;SDS011;5712;48.858;9.206;2023-04-03T08:16:49;4.90;;;3.00;;
11313;SDS011;5712;48.858;9.206;2023-04-03T08:19:16;3.83;;;2.80;;
11313;SDS011;5712;48.858;9.206;2023-04-03T08:21:47;5.63;;;3.20;;
11313;SDS011;5712;48.858;9.206;2023-04-03T08:24:15;5.57;;;3.40;;
11313;SDS011;5712;48.858;9.206;2023-04-03T08:26:41;3.53;;;2.93;;
11313;SDS011;5712;48.858;9.206;2023-04-03T08:29:08;4.27;;;2.93;;
11313;SDS011;5712;48.858;9.206;2023-04-03T08:31:35;3.63;;;3.30;;
11313;SDS011;5712;48.858;9.206;2023-04-03T08:34:01;4.77;;;3.00;;
11313;SDS011;5712;48.858;9.206;2023-04-03T08:36:29;3.70;;;2.97;;
11313;SDS011;5712;48.858;9.206;2023-04-03T08:38:56;3.80;;;2.80;;
11313;SDS011;5712;48.858;9.206;2023-04-03T08:41:27;3.97;;;3.20;;
11313;SDS011;5712;48.858;9.206;2023-04-03T08:43:58;3.60;;;2.93;;
11313;SDS011;5712;48.858;9.206;2023-04-03T08:46:34;3.60;;;2.73;;
11313;SDS011;5712;48.858;9.206;2023-04-03T08:49:10;2.70;;;2.50;;
11313;SDS011;5712;48.858;9.206;2023-04-03T08:51:48;4.33;;;3.20;;
11313;SDS011;5712;48.858;9.206;2023-04-03T08:54:19;4.40;;;2.70;;
11313;SDS011;5712;48.858;9.206;2023-04-03T08:56:53;4.90;;;2.60;;
11313;SDS011;5712;48.858;9.206;2023-04-03T08:59:23;4.03;;;2.83;;
11313;SDS011;5712;48.858;9.206;2023-04-03T09:01:53;3.47;;;2.40;;
11313;SDS011;5712;48.858;9.206;2023-04-03T09:04:20;4.37;;;3.03;;
11313;SDS011;5712;48.858;9.206;2023-04-03T09:06:48;4.47;;;3.17;;
11313;SDS011;5712;48.858;9.206;2023-04-03T09:09:22;4.70;;;2.90;;
11313;SDS011;5712;48.858;9.206;2023-04-03T09:12:00;4.10;;;2.90;;
11313;SDS011;5712;48.858;9.206;2023-04-03T09:14:36;3.57;;;2.63;;
11313;SDS011;5712;48.858;9.206;2023-04-03T09:17:09;3.10;;;2.70;;
11313;SDS011;5712;48.858;9.206;2023-04-03T09:19:41;3.00;;;2.70;;
11313;SDS011;5712;48.858;9.206;2023-04-03T09:22:17;3.60;;;2.63;;
11313;SDS011;5712;48.858;9.206;2023-04-03T09:24:47;4.13;;;2.80;;
11313;SDS011;5712;48.858;9.206;2023-04-03T09:27:20;3.53;;;2.90;;
11313;SDS011;5712;48.858;9.206;2023-04-03T09:29:46;4.77;;;2.70;;
11313;SDS011;5712;48.858;9.206;2023-04-03T09:32:18;3.50;;;2.70;;
11313;SDS011;5712;48.858;9.206;2023-04-03T09:34:49;3.60;;;2.57;;
11313;SDS011;5712;48.858;9.206;2023-04-03T09:37:33;4.38;;;2.80;;
11313;SDS011;5712;48.858;9.206;2023-04-03T09:40:02;6.60;;;2.90;;
11313;SDS011;5712;48.858;9.206;2023-04-03T09:42:31;3.93;;;2.73;;
11313;SDS011;5712;48.858;9.206;2023-04-03T09:44:59;3.33;;;2.50;;
11313;SDS011;5712;48.858;9.206;2023-04-03T09:47:27;5.00;;;2.20;;
11313;SDS011;5712;48.858;9.206;2023-04-03T09:50:08;3.57;;;2.13;;
11313;SDS011;5712;48.858;9.206;2023-04-03T09:52:45;3.43;;;2.47;;
11313;SDS011;5712;48.858;9.206;2023-04-03T09:55:13;6.03;;;2.57;;
11313;SDS011;5712;48.858;9.206;2023-04-03T09:57:43;4.47;;;2.50;;
11313;SDS011;5712;48.858;9.206;2023-04-03T10:00:19;5.70;;;2.63;;
11313;SDS011;5712;48.858;9.206;2023-04-03T10:02:49;4.00;;;2.33;;
11313;SDS011;5712;48.858;9.206;2023-04-03T10:05:28;5.40;;;2.60;;
11313;SDS011;5712;48.858;9.206;2023-04-03T10:08:08;4.47;;;2.60;;
11313;SDS011;5712;48.858;9.206;2023-04-03T10:10:37;4.17;;;2.30;;
11313;SDS011;5712;48.858;9.206;2023-04-03T10:13:06;3.80;;;2.30;;
11313;SDS011;5712;48.858;9.206;2023-04-03T10:15:36;3.50;;;2.20;;
11313;SDS011;5712;48.858;9.206;2023-04-03T10:18:08;3.40;;;2.30;;
11313;SDS011;5712;48.858;9.206;2023-04-03T10:20:56;2.33;;;2.13;;
11313;SDS011;5712;48.858;9.206;2023-04-03T10:23:26;2.90;;;2.20;;
11313;SDS011;5712;48.858;9.206;2023-04-03T10:26:01;2.63;;;2.10;;
11313;SDS011;5712;48.858;9.206;2023-04-03T10:28:38;2.63;;;2.00;;
11313;SDS011;5712;48.858;9.206;2023-04-03T10:31:13;4.53;;;2.00;;
11313;SDS011;5712;48.858;9.206;2023-04-03T10:33:51;2.50;;;2.10;;
11313;SDS011;5712;48.858;9.206;2023-04-03T10:36:29;1.90;;;1.80;;
11313;SDS011;5712;48.858;9.206;2023-04-03T10:39:05;3.83;;;1.90;;
11313;SDS011;5712;48.858;9.206;2023-04-03T10:41:45;3.83;;;2.07;;
11313;SDS011;5712;48.858;9.206;2023-04-03T10:44:26;2.13;;;1.83;;
11313;SDS011;5712;48.858;9.206;2023-04-03T10:47:02;3.67;;;2.27;;
11313;SDS011;5712;48.858;9.206;2023-04-03T10:49:40;3.10;;;1.93;;
11313;SDS011;5712;48.858;9.206;2023-04-03T10:52:17;4.37;;;1.87;;
11313;SDS011;5712;48.858;9.206;2023-04-03T10:54:49;3.80;;;1.67;;
11313;SDS011;5712;48.858;9.206;2023-04-03T10:57:26;3.33;;;1.90;;
11313;SDS011;5712;48.858;9.206;2023-04-03T10:59:56;1.93;;;1.73;;
11313;SDS011;5712;48.858;9.206;2023-04-03T11:02:27;2.60;;;1.70;;
11313;SDS011;5712;48.858;9.206;2023-04-03T11:04:57;2.83;;;1.60;;
11313;SDS011;5712;48.858;9.206;2023-04-03T11:07:28;3.70;;;1.57;;
11313;SDS011;5712;48.858;9.206;2023-04-03T11:10:00;2.03;;;1.70;;
11313;SDS011;5712;48.858;9.206;2023-04-03T11:12:33;3.13;;;1.80;;
11313;SDS011;5712;48.858;9.206;2023-04-03T11:15:11;3.03;;;1.83;;
11313;SDS011;5712;48.858;9.206;2023-04-03T11:17:39;2.97;;;1.73;;
11313;SDS011;5712;48.858;9.206;2023-04-03T11:20:14;2.83;;;1.80;;
11313;SDS011;5712;48.858;9.206;2023-04-03T11:22:45;5.07;;;2.00;;
11313;SDS011;5712;48.858;9.206;2023-04-03T11:25:17;4.27;;;2.00;;
11313;SDS011;5712;48.858;9.206;2023-04-03T11:27:48;2.93;;;1.97;;
11313;SDS011;5712;48.858;9.206;2023-04-03T11:30:22;2.23;;;1.80;;
11313;SDS011;5712;48.858;9.206;2023-04-03T11:32:58;2.40;;;1.93;;
11313;SDS011;5712;48.858;9.206;2023-04-03T11:35:35;1.80;;;1.60;;
11313;SDS011;5712;48.858;9.206;2023-04-03T11:38:03;1.80;;;1.70;;
11313;SDS011;5712;48.858;9.206;2023-04-03T11:40:32;3.00;;;1.80;;
11313;SDS011;5712;48.858;9.206;2023-04-03T11:43:06;1.67;;;1.57;;
11313;SDS011;5712;48.858;9.206;2023-04-03T11:45:50;3.53;;;1.67;;
11313;SDS011;5712;48.858;9.206;2023-04-03T12:03:32;2.57;;;1.80;;
11313;SDS011;5712;48.858;9.206;2023-04-03T12:09:24;2.57;;;1.80;;
11313;SDS011;5712;48.858;9.206;2023-04-03T12:11:52;2.83;;;1.70;;
11313;SDS011;5712;48.858;9.206;2023-04-03T12:14:22;2.50;;;1.60;;
11313;SDS011;5712;48.858;9.206;2023-04-03T12:16:50;2.50;;;1.70;;
11313;SDS011;5712;48.858;9.206;2023-04-03T12:19:29;2.80;;;1.80;;
11313;SDS011;5712;48.858;9.206;2023-04-03T12:22:10;2.63;;;1.70;;
11313;SDS011;5712;48.858;9.206;2023-04-03T12:24:41;2.87;;;1.67;;
11313;SDS011;5712;48.858;9.206;2023-04-03T12:27:24;3.10;;;1.83;;
11313;SDS011;5712;48.858;9.206;2023-04-03T12:29:56;3.47;;;2.10;;
11313;SDS011;5712;48.858;9.206;2023-04-03T12:35:30;2.67;;;1.80;;
11313;SDS011;5712;48.858;9.206;2023-04-03T12:38:23;2.07;;;1.60;;
11313;SDS011;5712;48.858;9.206;2023-04-03T12:41:21;4.23;;;1.70;;
11313;SDS011;5712;48.858;9.206;2023-04-03T12:46:47;2.80;;;1.67;;
11313;SDS011;5712;48.858;9.206;2023-04-03T12:49:26;3.13;;;1.90;;
11313;SDS011;5712;48.858;9.206;2023-04-03T12:52:03;3.47;;;2.13;;
11313;SDS011;5712;48.858;9.206;2023-04-03T12:54:32;4.37;;;1.70;;
11313;SDS011;5712;48.858;9.206;2023-04-03T12:57:08;2.20;;;2.00;;
11313;SDS011;5712;48.858;9.206;2023-04-03T12:59:36;3.20;;;2.03;;
11313;SDS011;5712;48.858;9.206;2023-04-03T13:02:03;2.90;;;2.00;;
11313;SDS011;5712;48.858;9.206;2023-04-03T13:04:43;2.57;;;2.00;;
11313;SDS011;5712;48.858;9.206;2023-04-03T13:07:19;2.70;;;1.80;;
11313;SDS011;5712;48.858;9.206;2023-04-03T13:09:55;2.57;;;2.00;;
11313;SDS011;5712;48.858;9.206;2023-04-03T13:12:24;5.23;;;2.07;;
11313;SDS011;5712;48.858;9.206;2023-04-03T13:14:51;2.17;;;1.90;;
11313;SDS011;5712;48.858;9.206;2023-04-03T13:17:19;3.20;;;1.93;;
11313;SDS011;5712;48.858;9.206;2023-04-03T13:19:46;1.80;;;1.67;;
11313;SDS011;5712;48.858;9.206;2023-04-03T13:22:18;2.47;;;2.27;;
11313;SDS011;5712;48.858;9.206;2023-04-03T13:24:57;3.57;;;1.80;;
11313;SDS011;5712;48.858;9.206;2023-04-03T13:27:27;2.80;;;2.03;;
11313;SDS011;5712;48.858;9.206;2023-04-03T13:29:57;3.37;;;2.03;;
11313;SDS011;5712;48.858;9.206;2023-04-03T13:32:27;3.30;;;2.17;;
11313;SDS011;5712;48.858;9.206;2023-04-03T13:34:56;2.77;;;2.07;;
11313;SDS011;5712;48.858;9.206;2023-04-03T13:37:25;2.10;;;1.90;;
11313;SDS011;5712;48.858;9.206;2023-04-03T13:39:59;2.70;;;1.83;;
11313;SDS011;5712;48.858;9.206;2023-04-03T13:42:28;2.23;;;1.60;;
11313;SDS011;5712;48.858;9.206;2023-04-03T13:45:10;3.87;;;2.00;;
11313;SDS011;5712;48.858;9.206;2023-04-03T13:47:45;4.27;;;2.83;;
11313;SDS011;5712;48.858;9.206;2023-04-03T13:50:14;2.00;;;1.67;;
11313;SDS011;5712;48.858;9.206;2023-04-03T13:52:44;2.37;;;1.80;;
11313;SDS011;5712;48.858;9.206;2023-04-03T13:55:18;3.70;;;2.40;;
11313;SDS011;5712;48.858;9.206;2023-04-03T13:57:50;3.67;;;2.10;;
11313;SDS011;5712;48.858;9.206;2023-04-03T14:00:20;4.50;;;2.37;;
11313;SDS011;5712;48.858;9.206;2023-04-03T14:05:32;2.50;;;2.30;;
11313;SDS011;5712;48.858;9.206;2023-04-03T14:07:59;2.50;;;1.80;;
11313;SDS011;5712;48.858;9.206;2023-04-03T14:10:28;2.40;;;1.87;;
11313;SDS011;5712;48.858;9.206;2023-04-03T14:12:55;4.20;;;1.73;;
11313;SDS011;5712;48.858;9.206;2023-04-03T14:15:23;3.97;;;1.87;;
11313;SDS011;5712;48.858;9.206;2023-04-03T14:17:52;2.97;;;1.83;;
11313;SDS011;5712;48.858;9.206;2023-04-03T14:20:20;3.13;;;1.90;;
11313;SDS011;5712;48.858;9.206;2023-04-03T14:22:50;2.77;;;1.90;;
11313;SDS011;5712;48.858;9.206;2023-04-03T14:25:19;2.80;;;1.80;;
11313;SDS011;5712;48.858;9.206;2023-04-03T14:27:49;2.10;;;1.80;;
11313;SDS011;5712;48.858;9.206;2023-04-03T14:30:18;2.67;;;1.80;;
11313;SDS011;5712;48.858;9.206;2023-04-03T14:32:48;2.50;;;2.20;;
11313;SDS011;5712;48.858;9.206;2023-04-03T14:35:15;3.07;;;2.00;;
11313;SDS011;5712;48.858;9.206;2023-04-03T14:37:42;1.97;;;1.70;;
11313;SDS011;5712;48.858;9.206;2023-04-03T14:40:11;2.43;;;1.83;;
11313;SDS011;5712;48.858;9.206;2023-04-03T14:42:39;2.30;;;1.80;;
11313;SDS011;5712;48.858;9.206;2023-04-03T14:45:08;2.10;;;1.80;;
11313;SDS011;5712;48.858;9.206;2023-04-03T14:47:37;3.23;;;1.80;;
11313;SDS011;5712;48.858;9.206;2023-04-03T14:50:07;1.73;;;1.63;;
11313;SDS011;5712;48.858;9.206;2023-04-03T14:52:39;2.73;;;1.83;;
11313;SDS011;5712;48.858;9.206;2023-04-03T14:55:06;2.03;;;1.83;;
11313;SDS011;5712;48.858;9.206;2023-04-03T14:57:33;2.97;;;1.70;;
11313;SDS011;5712;48.858;9.206;2023-04-03T15:00:00;1.97;;;1.70;;
11313;SDS011;5712;48.858;9.206;2023-04-03T15:02:31;2.27;;;1.97;;
11313;SDS011;5712;48.858;9.206;2023-04-03T15:04:58;2.70;;;1.73;;
11313;SDS011;5712;48.858;9.206;2023-04-03T15:07:29;2.40;;;1.87;;
11313;SDS011;5712;48.858;9.206;2023-04-03T15:09:59;3.30;;;1.77;;
11313;SDS011;5712;48.858;9.206;2023-04-03T15:12:27;2.83;;;1.83;;
11313;SDS011;5712;48.858;9.206;2023-04-03T15:14:54;1.70;;;1.60;;
11313;SDS011;5712;48.858;9.206;2023-04-03T15:17:21;2.83;;;2.00;;
11313;SDS011;5712;48.858;9.206;2023-04-03T15:19:49;2.77;;;1.73;;
11313;SDS011;5712;48.858;9.206;2023-04-03T15:22:17;2.83;;;1.80;;
11313;SDS011;5712;48.858;9.206;2023-04-03T15:24:45;2.70;;;1.73;;
11313;SDS011;5712;48.858;9.206;2023-04-03T15:27:12;3.73;;;1.93;;
11313;SDS011;5712;48.858;9.206;2023-04-03T15:29:40;3.10;;;1.90;;
11313;SDS011;5712;48.858;9.206;2023-04-03T15:32:08;2.57;;;1.60;;
11313;SDS011;5712;48.858;9.206;2023-04-03T15:34:34;2.83;;;1.73;;
11313;SDS011;5712;48.858;9.206;2023-04-03T15:37:02;2.13;;;1.93;;
11313;SDS011;5712;48.858;9.206;2023-04-03T15:39:29;2.53;;;1.80;;
11313;SDS011;5712;48.858;9.206;2023-04-03T15:41:55;1.87;;;1.63;;
11313;SDS011;5712;48.858;9.206;2023-04-03T15:44:24;3.03;;;1.70;;